Belews Creek, North Carolina
Current Conditions -  °F | °C
As of 4:54 PM on Wednesday 28 Jan 2015 (Local Time) from KINT Reporting Station
Clear Clear  
Wind Chill: 45°   Ceiling: Unl
Heat Index: 45°   Visibility: 10mi
Dew Point: 12°   Wind: 3mph
Humidity: 26%   Direction: 330°NNW
Pressure: 30.23"   Gusts: NA
Location:  36.24°N, 80.07°W
Report Text: KINT 282154Z 33003KT 10SM CLR 07/M11 A3023 RMK AO2 SLP243 T00721111
Loading
Personal Weather Stations






























Interactive Weather Map New forecast layout! Learn more

10-Day Weather Forecast

Advertisements
Track Severe Weather on mobile